createdAt,value
2023-04-16T00:00:44.397Z,100624.47
2023-04-16T00:03:11.215Z,100622.66
2023-04-16T00:05:37.953Z,100619.06
2023-04-16T00:08:04.529Z,100620.72
2023-04-16T00:10:31.173Z,100626.00
2023-04-16T00:12:57.789Z,100618.91
2023-04-16T00:15:24.311Z,100624.19
2023-04-16T00:17:50.807Z,100625.06
2023-04-16T00:20:17.760Z,100625.84
2023-04-16T00:22:44.224Z,100618.69
2023-04-16T00:25:10.764Z,100630.09
2023-04-16T00:27:37.406Z,100622.97
2023-04-16T00:30:04.097Z,100628.25
2023-04-16T00:32:30.996Z,100633.53
2023-04-16T00:34:57.512Z,100621.25
2023-04-16T00:37:24.060Z,100638.00
2023-04-16T00:39:50.982Z,100642.47
2023-04-16T00:42:17.510Z,100638.88
2023-04-16T00:44:44.046Z,100641.56
2023-04-16T00:47:11.594Z,100638.03
2023-04-16T00:49:38.144Z,100648.56
2023-04-16T00:52:04.725Z,100652.00
2023-04-16T00:54:31.811Z,100642.38
2023-04-16T00:56:59.544Z,100643.25
2023-04-16T00:59:26.946Z,100640.50
2023-04-16T01:01:53.593Z,100643.09
2023-04-16T01:04:20.863Z,100643.09
2023-04-16T01:06:47.545Z,100656.19
2023-04-16T01:09:14.234Z,100658.81
2023-04-16T01:11:41.067Z,100650.84
2023-04-16T01:14:07.690Z,100658.75
2023-04-16T01:16:34.285Z,100668.38
2023-04-16T01:19:00.851Z,100665.66
2023-04-16T01:21:27.490Z,100663.84
2023-04-16T01:23:54.051Z,100669.94
2023-04-16T01:26:20.591Z,100666.38
2023-04-16T01:28:47.305Z,100667.22
2023-04-16T01:31:13.856Z,100671.50
2023-04-16T01:33:47.258Z,100671.50
2023-04-16T01:36:13.857Z,100663.56
2023-04-16T01:38:40.615Z,100676.75
2023-04-16T01:41:07.305Z,100677.63
2023-04-16T01:43:34.868Z,100673.19
2023-04-16T01:46:15.189Z,100674.97
2023-04-16T01:48:41.795Z,100674.06
2023-04-16T01:51:08.339Z,100670.56
2023-04-16T01:53:37.005Z,100673.19
2023-04-16T01:56:04.116Z,100675.78
2023-04-16T01:58:32.489Z,100675.75
2023-04-16T02:00:59.374Z,100670.47
2023-04-16T02:03:26.520Z,100668.63
2023-04-16T02:05:53.187Z,100668.63
2023-04-16T02:08:19.664Z,100674.75
2023-04-16T02:10:47.840Z,100678.22
2023-04-16T02:13:17.463Z,100679.03
2023-04-16T02:15:47.657Z,100677.25
2023-04-16T02:18:16.453Z,100682.53
2023-04-16T02:20:45.337Z,100685.22
2023-04-16T02:23:14.990Z,100687.88
2023-04-16T02:25:43.245Z,100691.38
2023-04-16T02:28:13.451Z,100684.31
2023-04-16T02:30:42.030Z,100698.38
2023-04-16T02:33:10.573Z,100687.75
2023-04-16T02:35:40.441Z,100693.03
2023-04-16T02:38:07.953Z,100695.63
2023-04-16T02:40:35.835Z,100709.72
2023-04-16T02:43:02.873Z,100693.81
2023-04-16T02:45:31.759Z,100700.84
2023-04-16T02:47:58.640Z,100703.44
2023-04-16T02:50:25.588Z,100707.00
2023-04-16T02:52:53.893Z,100704.41
2023-04-16T02:55:20.778Z,100710.63
2023-04-16T02:57:47.953Z,100710.63
2023-04-16T03:00:14.732Z,100701.00
2023-04-16T03:02:41.489Z,100704.56
2023-04-16T03:05:09.401Z,100707.22
2023-04-16T03:07:36.417Z,100708.03
2023-04-16T03:10:03.599Z,100708.91
2023-04-16T03:12:30.248Z,100714.16
2023-04-16T03:14:56.904Z,100710.47
2023-04-16T03:17:23.518Z,100718.28
2023-04-16T03:19:50.958Z,100719.97
2023-04-16T03:22:20.021Z,100725.16
2023-04-16T03:24:46.958Z,100726.00
2023-04-16T03:27:13.672Z,100723.34
2023-04-16T03:29:40.510Z,100719.72
2023-04-16T03:32:09.591Z,100717.88
2023-04-16T03:34:37.147Z,100729.25
2023-04-16T03:37:05.913Z,100722.22
2023-04-16T03:39:33.963Z,100730.97
2023-04-16T03:42:00.580Z,100728.22
2023-04-16T03:44:27.748Z,100738.59
2023-04-16T03:46:55.775Z,100742.00
2023-04-16T03:49:22.639Z,100734.00
2023-04-16T03:51:49.515Z,100735.69
2023-04-16T03:54:16.269Z,100735.69
2023-04-16T03:56:50.045Z,100731.25
2023-04-16T03:59:17.409Z,100737.44
2023-04-16T04:01:44.612Z,100739.16
2023-04-16T04:04:11.666Z,100747.97
2023-04-16T04:06:38.415Z,100740.00
2023-04-16T04:09:05.079Z,100751.28
2023-04-16T04:11:34.091Z,100750.31
2023-04-16T04:14:01.745Z,100747.63
2023-04-16T04:16:28.703Z,100749.25
2023-04-16T04:18:55.656Z,100753.66
2023-04-16T04:21:22.594Z,100747.50
2023-04-16T04:23:49.829Z,100752.78
2023-04-16T04:26:16.465Z,100760.78
2023-04-16T04:28:43.110Z,100751.06
2023-04-16T04:31:09.754Z,100750.19
2023-04-16T04:33:36.687Z,100758.22
2023-04-16T04:36:04.543Z,100749.44
2023-04-16T04:38:33.385Z,100755.63
2023-04-16T04:41:00.057Z,100756.56
2023-04-16T04:43:30.333Z,100760.88
2023-04-16T04:45:59.124Z,100763.34
2023-04-16T04:48:27.982Z,100759.06
2023-04-16T04:50:56.373Z,100773.13
2023-04-16T04:53:23.717Z,100774.88
2023-04-16T04:55:53.159Z,100773.97
2023-04-16T04:58:23.009Z,100775.72
2023-04-16T05:00:50.527Z,100773.09
2023-04-16T05:03:21.448Z,100772.19
2023-04-16T05:05:48.510Z,100780.09
2023-04-16T05:08:15.337Z,100784.50
2023-04-16T05:10:42.173Z,100783.63
2023-04-16T05:13:08.897Z,100787.22
2023-04-16T05:15:35.495Z,100792.41
2023-04-16T05:18:02.027Z,100791.59
2023-04-16T05:20:28.703Z,100791.69
2023-04-16T05:22:55.759Z,100795.34
2023-04-16T05:25:22.749Z,100804.25
2023-04-16T05:27:49.290Z,100802.56
2023-04-16T05:30:19.466Z,100808.69
2023-04-16T05:32:46.324Z,100811.44
2023-04-16T05:35:14.246Z,100809.72
2023-04-16T05:37:42.082Z,100815.00
2023-04-16T05:40:09.400Z,100823.78
2023-04-16T05:42:37.746Z,100825.53
2023-04-16T05:45:05.137Z,100824.69
2023-04-16T05:47:31.700Z,100825.66
2023-04-16T05:49:58.696Z,100823.16
2023-04-16T05:52:25.785Z,100824.97
2023-04-16T05:54:53.083Z,100835.59
2023-04-16T05:57:19.986Z,100830.41
2023-04-16T05:59:46.883Z,100835.69
2023-04-16T06:02:13.542Z,100843.66
2023-04-16T06:04:40.486Z,100841.09
2023-04-16T06:07:07.152Z,100844.66
2023-04-16T06:09:33.748Z,100843.00
2023-04-16T06:12:01.579Z,100841.34
2023-04-16T06:14:29.456Z,100841.38
2023-04-16T06:16:57.404Z,100845.84
2023-04-16T06:19:24.206Z,100845.84
2023-04-16T06:21:51.364Z,100840.50
2023-04-16T06:24:18.928Z,100852.81
2023-04-16T06:26:45.901Z,100851.94
2023-04-16T06:29:12.645Z,100856.38
2023-04-16T06:31:39.303Z,100860.75
2023-04-16T06:34:06.089Z,100858.97
2023-04-16T06:36:32.889Z,100860.75
2023-04-16T06:38:59.434Z,100872.28
2023-04-16T06:41:27.033Z,100862.69
2023-04-16T06:43:55.067Z,100875.97
2023-04-16T06:46:21.799Z,100871.66
2023-04-16T06:48:48.354Z,100880.59
2023-04-16T06:51:15.716Z,100877.09
2023-04-16T06:53:42.652Z,100878.03
2023-04-16T06:56:09.261Z,100879.03
2023-04-16T06:58:36.418Z,100886.91
2023-04-16T07:01:03.183Z,100881.47
2023-04-16T07:03:29.857Z,100881.47
2023-04-16T07:05:57.138Z,100885.88
2023-04-16T07:08:24.601Z,100889.44
2023-04-16T07:10:51.980Z,100885.97
2023-04-16T07:13:18.680Z,100896.66
2023-04-16T07:15:45.480Z,100901.06
2023-04-16T07:18:12.082Z,100897.59
2023-04-16T07:20:38.734Z,100903.91
2023-04-16T07:23:05.497Z,100906.66
2023-04-16T07:25:32.093Z,100902.38
2023-04-16T07:27:58.837Z,100909.56
2023-04-16T07:30:25.609Z,100905.22
2023-04-16T07:32:52.776Z,100905.22
2023-04-16T07:35:19.448Z,100914.00
2023-04-16T07:37:45.999Z,100920.16
2023-04-16T07:40:13.765Z,100922.72
2023-04-16T07:42:40.555Z,100920.91
2023-04-16T07:45:08.020Z,100928.00
2023-04-16T07:47:34.737Z,100922.72
2023-04-16T07:50:01.227Z,100930.53
2023-04-16T07:52:27.872Z,100925.16
2023-04-16T07:54:54.880Z,100931.22
2023-04-16T07:57:21.683Z,100932.88
2023-04-16T07:59:48.213Z,100925.03
2023-04-16T08:02:16.997Z,100931.25
2023-04-16T08:04:45.584Z,100928.75
2023-04-16T08:07:12.519Z,100940.19
2023-04-16T08:09:56.160Z,100941.97
2023-04-16T08:12:23.360Z,100942.78
2023-04-16T08:14:49.865Z,100948.97
2023-04-16T08:17:16.746Z,100956.84
2023-04-16T08:19:47.723Z,100955.03
2023-04-16T08:22:14.825Z,100965.63
2023-04-16T08:24:42.978Z,100967.28
2023-04-16T08:27:18.548Z,100972.56
2023-04-16T08:29:47.746Z,100968.09
2023-04-16T08:32:14.325Z,100972.34
2023-04-16T08:34:42.016Z,100978.34
2023-04-16T08:37:08.920Z,100987.19
2023-04-16T08:39:35.958Z,100986.28
2023-04-16T08:42:05.222Z,100987.16
2023-04-16T08:44:33.772Z,100989.75
2023-04-16T08:47:02.435Z,100999.44
2023-04-16T08:49:36.013Z,100998.47
2023-04-16T08:52:06.188Z,100988.66
2023-04-16T08:55:04.124Z,100991.47
2023-04-16T08:57:39.526Z,100995.72
2023-04-16T09:00:07.968Z,101001.03
2023-04-16T09:02:35.439Z,101001.00
2023-04-16T09:05:05.314Z,101003.66
2023-04-16T09:07:33.543Z,101003.69
2023-04-16T09:10:00.899Z,101005.41
2023-04-16T09:12:30.020Z,101015.94
2023-04-16T09:14:57.618Z,101007.13
2023-04-16T09:17:24.234Z,101012.31
2023-04-16T09:19:50.947Z,101014.78
2023-04-16T09:22:17.598Z,101019.16
2023-04-16T09:24:44.502Z,101016.50
2023-04-16T09:27:12.814Z,101023.53
2023-04-16T09:29:41.082Z,101016.41
2023-04-16T09:32:10.236Z,101027.91
2023-04-16T09:35:01.854Z,101025.44
2023-04-16T09:37:30.004Z,101030.03
2023-04-16T09:40:02.299Z,101031.09
2023-04-16T09:42:32.825Z,101024.28
2023-04-16T09:45:05.501Z,101025.41
2023-04-16T09:47:41.808Z,101031.53
2023-04-16T09:50:12.515Z,101030.75
2023-04-16T09:52:39.676Z,101034.34
2023-04-16T09:55:06.784Z,101029.88
2023-04-16T09:57:33.314Z,101031.63
2023-04-16T10:00:09.339Z,101037.00
2023-04-16T10:02:39.049Z,101043.38
2023-04-16T10:05:06.438Z,101047.81
2023-04-16T10:07:37.554Z,101049.69
2023-04-16T10:10:05.425Z,101046.22
2023-04-16T10:12:33.043Z,101042.72
2023-04-16T10:14:59.737Z,101049.06
2023-04-16T10:17:29.926Z,101053.81
2023-04-16T10:19:58.320Z,101059.47
2023-04-16T10:22:26.242Z,101050.16
2023-04-16T10:24:53.967Z,101057.47
2023-04-16T10:27:20.756Z,101058.34
2023-04-16T10:29:48.921Z,101059.41
2023-04-16T10:32:17.944Z,101054.97
2023-04-16T10:34:44.921Z,101059.56
2023-04-16T10:37:11.498Z,101065.88
2023-04-16T10:39:38.237Z,101068.66
2023-04-16T10:42:13.365Z,101055.50
2023-04-16T10:44:42.793Z,101065.34
2023-04-16T10:47:13.465Z,101057.75
2023-04-16T10:49:41.336Z,101060.75
2023-04-16T10:52:13.526Z,101067.31
2023-04-16T10:54:41.755Z,101075.25
2023-04-16T10:57:12.609Z,101069.13
2023-04-16T10:59:44.175Z,101069.13
2023-04-16T11:02:15.643Z,101070.94
2023-04-16T11:04:45.342Z,101077.13
2023-04-16T11:07:15.678Z,101079.72
2023-04-16T11:09:47.790Z,101074.41
2023-04-16T11:12:35.178Z,101085.09
2023-04-16T11:15:04.375Z,101085.13
2023-04-16T11:17:33.655Z,101082.59
2023-04-16T11:20:01.118Z,101082.69
2023-04-16T11:22:27.964Z,101086.25
2023-04-16T11:24:56.812Z,101085.31
2023-04-16T11:27:24.920Z,101087.16
2023-04-16T11:30:02.270Z,101089.78
2023-04-16T11:32:32.676Z,101092.44
2023-04-16T11:35:07.229Z,101096.88
2023-04-16T11:37:37.772Z,101094.25
2023-04-16T11:40:13.366Z,101092.69
2023-04-16T11:42:42.229Z,101095.50
2023-04-16T11:45:11.068Z,101098.59
2023-04-16T11:47:54.848Z,101088.44
2023-04-16T11:50:25.466Z,101091.47
2023-04-16T11:52:53.557Z,101091.72
2023-04-16T11:55:21.455Z,101088.50
2023-04-16T11:57:48.605Z,101091.44
2023-04-16T12:00:15.907Z,101093.53
2023-04-16T12:02:45.602Z,101100.91
2023-04-16T12:05:35.966Z,101097.41
2023-04-16T12:08:07.502Z,101093.91
2023-04-16T12:10:36.630Z,101102.88
2023-04-16T12:13:14.104Z,101095.06
2023-04-16T12:16:02.811Z,101097.88
2023-04-16T12:18:31.195Z,101084.75
2023-04-16T12:20:58.004Z,101095.41
2023-04-16T12:23:29.832Z,101088.16
2023-04-16T12:26:03.148Z,101088.97
2023-04-16T12:28:36.709Z,101096.81
2023-04-16T12:31:03.610Z,101095.00
2023-04-16T12:33:30.927Z,101093.25
2023-04-16T12:35:57.876Z,101090.72
2023-04-16T12:38:26.293Z,101094.28
2023-04-16T12:40:57.425Z,101099.66
2023-04-16T12:43:25.460Z,101095.19
2023-04-16T12:45:52.346Z,101097.75
2023-04-16T12:48:19.280Z,101097.72
2023-04-16T12:50:46.068Z,101095.06
2023-04-16T12:53:13.201Z,101091.56
2023-04-16T12:55:39.785Z,101106.69
2023-04-16T12:58:06.885Z,101102.19
2023-04-16T13:00:33.890Z,101096.75
2023-04-16T13:03:01.599Z,101102.91
2023-04-16T13:05:28.344Z,101101.16
2023-04-16T13:07:55.244Z,101107.31
2023-04-16T13:10:23.723Z,101113.53
2023-04-16T13:12:50.567Z,101108.13
2023-04-16T13:15:17.133Z,101101.13
2023-04-16T13:17:43.768Z,101096.81
2023-04-16T13:20:10.784Z,101097.84
2023-04-16T13:22:37.784Z,101103.22
2023-04-16T13:25:05.240Z,101106.88
2023-04-16T13:27:32.632Z,101098.97
2023-04-16T13:29:59.536Z,101107.00
2023-04-16T13:32:26.354Z,101103.44
2023-04-16T13:34:52.903Z,101114.16
2023-04-16T13:37:19.817Z,101111.56
2023-04-16T13:39:46.446Z,101108.97
2023-04-16T13:42:12.994Z,101105.47
2023-04-16T13:44:39.553Z,101102.88
2023-04-16T13:47:06.951Z,101097.59
2023-04-16T13:49:36.108Z,101103.84
2023-04-16T13:52:04.056Z,101099.38
2023-04-16T13:54:30.836Z,101107.31
2023-04-16T13:56:57.519Z,101101.94
2023-04-16T13:59:24.317Z,101090.47
2023-04-16T14:01:51.292Z,101097.59
2023-04-16T14:04:18.575Z,101096.72
2023-04-16T14:06:45.418Z,101096.66
2023-04-16T14:09:12.067Z,101097.50
2023-04-16T14:11:39.026Z,101095.75
2023-04-16T14:14:06.728Z,101097.47
2023-04-16T14:16:35.459Z,101106.31
2023-04-16T14:19:02.250Z,101097.31
2023-04-16T14:21:28.894Z,101105.25
2023-04-16T14:23:55.468Z,101096.25
2023-04-16T14:26:22.944Z,101098.97
2023-04-16T14:28:51.400Z,101099.88
2023-04-16T14:31:20.108Z,101098.13
2023-04-16T14:33:47.658Z,101090.13
2023-04-16T14:36:14.360Z,101093.69
2023-04-16T14:38:43.368Z,101092.78
2023-04-16T14:41:10.929Z,101093.63
2023-04-16T14:43:40.380Z,101092.59
2023-04-16T14:46:07.252Z,101096.03
2023-04-16T14:48:33.988Z,101094.16
2023-04-16T14:51:00.603Z,101103.78
2023-04-16T14:53:27.670Z,101104.56
2023-04-16T14:55:54.315Z,101113.38
2023-04-16T14:58:21.940Z,101108.84
2023-04-16T15:00:48.568Z,101109.63
2023-04-16T15:03:15.559Z,101109.69
2023-04-16T15:05:42.200Z,101115.09
2023-04-16T15:08:09.326Z,101105.41
2023-04-16T15:10:35.835Z,101109.03
2023-04-16T15:13:02.376Z,101117.09
2023-04-16T15:15:29.548Z,101107.38
2023-04-16T15:17:57.260Z,101116.25
2023-04-16T15:20:23.792Z,101108.34
2023-04-16T15:22:50.634Z,101107.50
2023-04-16T15:25:17.450Z,101104.84
2023-04-16T15:27:43.994Z,101103.16
2023-04-16T15:30:12.634Z,101108.56
2023-04-16T15:32:39.334Z,101109.50
2023-04-16T15:35:09.810Z,101111.38
2023-04-16T15:37:38.760Z,101106.97
2023-04-16T15:40:09.880Z,101110.53
2023-04-16T15:42:38.236Z,101118.50
2023-04-16T15:45:05.142Z,101117.59
2023-04-16T15:47:31.739Z,101113.88
2023-04-16T15:49:58.277Z,101113.81
2023-04-16T15:52:24.917Z,101112.84
2023-04-16T15:54:51.971Z,101119.00
2023-04-16T15:57:18.509Z,101129.56
2023-04-16T15:59:55.794Z,101127.72
2023-04-16T16:02:32.348Z,101135.56
2023-04-16T16:05:00.300Z,101131.97
2023-04-16T16:07:27.534Z,101139.84
2023-04-16T16:09:54.153Z,101133.53
2023-04-16T16:12:20.953Z,101144.06
2023-04-16T16:14:47.836Z,101144.88
2023-04-16T16:17:15.322Z,101142.13
2023-04-16T16:19:43.061Z,101145.59
2023-04-16T16:22:11.024Z,101147.31
2023-04-16T16:24:39.371Z,101149.03
2023-04-16T16:27:07.428Z,101150.75
2023-04-16T16:29:33.946Z,101141.84
2023-04-16T16:32:02.121Z,101151.56
2023-04-16T16:34:29.097Z,101151.53
2023-04-16T16:36:55.913Z,101154.09
2023-04-16T16:39:26.917Z,101147.84
2023-04-16T16:41:53.727Z,101154.91
2023-04-16T16:44:20.796Z,101163.75
2023-04-16T16:46:47.833Z,101163.69
2023-04-16T16:49:17.522Z,101153.94
2023-04-16T16:51:50.155Z,101151.25
2023-04-16T16:54:17.879Z,101150.38
2023-04-16T16:56:44.452Z,101161.88
2023-04-16T16:59:11.583Z,101157.44
2023-04-16T17:01:38.450Z,101166.34
2023-04-16T17:04:05.598Z,101167.25
2023-04-16T17:06:33.267Z,101176.13
2023-04-16T17:09:00.806Z,101171.69
2023-04-16T17:11:27.990Z,101169.84
2023-04-16T17:13:55.068Z,101174.13
2023-04-16T17:16:22.854Z,101183.72
2023-04-16T17:18:49.949Z,101188.06
2023-04-16T17:21:16.941Z,101184.44
2023-04-16T17:23:43.786Z,101186.16
2023-04-16T17:26:10.599Z,101188.69
2023-04-16T17:28:37.341Z,101191.22
2023-04-16T17:31:06.237Z,101192.97
2023-04-16T17:33:33.093Z,101187.63
2023-04-16T17:35:59.631Z,101197.34
2023-04-16T17:38:26.560Z,101199.03
2023-04-16T17:40:53.095Z,101198.13
2023-04-16T17:43:19.998Z,101205.16
2023-04-16T17:45:46.715Z,101209.56
2023-04-16T17:48:13.582Z,101214.78
2023-04-16T17:50:40.089Z,101220.97
2023-04-16T17:53:08.500Z,101223.53
2023-04-16T17:55:35.872Z,101214.66
2023-04-16T17:58:04.238Z,101215.53
2023-04-16T18:00:31.245Z,101224.31
2023-04-16T18:02:59.770Z,101217.25
2023-04-16T18:05:27.692Z,101227.84
2023-04-16T18:07:55.699Z,101224.28
2023-04-16T18:10:22.394Z,101229.56
2023-04-16T18:12:49.205Z,101233.03
2023-04-16T18:15:15.969Z,101241.88
2023-04-16T18:17:42.644Z,101238.28
2023-04-16T18:20:11.764Z,101236.47
2023-04-16T18:22:38.526Z,101240.00
2023-04-16T18:25:06.773Z,101238.25
2023-04-16T18:27:33.803Z,101240.81
2023-04-16T18:30:00.726Z,101238.13
2023-04-16T18:32:30.852Z,101251.31
2023-04-16T18:34:57.940Z,101255.69
2023-04-16T18:37:24.653Z,101256.50
2023-04-16T18:39:51.492Z,101253.81
2023-04-16T18:42:18.047Z,101263.50
2023-04-16T18:44:51.683Z,101274.06
2023-04-16T18:47:18.425Z,101266.94
2023-04-16T18:49:46.505Z,101272.22
2023-04-16T18:52:13.651Z,101273.91
2023-04-16T18:54:41.121Z,101279.22
2023-04-16T18:57:10.372Z,101283.59
2023-04-16T18:59:37.174Z,101288.88
2023-04-16T19:02:04.345Z,101290.59
2023-04-16T19:04:33.588Z,101285.22
2023-04-16T19:07:01.113Z,101292.25
2023-04-16T19:09:27.680Z,101292.25
2023-04-16T19:11:54.638Z,101296.69
2023-04-16T19:14:21.428Z,101303.72
2023-04-16T19:16:48.056Z,101305.47
2023-04-16T19:19:15.715Z,101309.88
2023-04-16T19:21:42.327Z,101300.97
2023-04-16T19:24:09.359Z,101302.72
2023-04-16T19:26:36.189Z,101300.06
2023-04-16T19:29:03.089Z,101306.22
2023-04-16T19:31:29.867Z,101308.88
2023-04-16T19:33:56.536Z,101305.31
2023-04-16T19:36:23.554Z,101307.03
2023-04-16T19:38:50.660Z,101314.94
2023-04-16T19:41:17.672Z,101314.00
2023-04-16T19:43:44.431Z,101319.28
2023-04-16T19:46:11.192Z,101313.03
2023-04-16T19:48:37.870Z,101313.84
2023-04-16T19:51:05.663Z,101310.25
2023-04-16T19:53:32.708Z,101304.06
2023-04-16T19:56:01.264Z,101312.00
2023-04-16T19:58:28.136Z,101303.97
2023-04-16T20:00:55.979Z,101305.69
2023-04-16T20:03:22.602Z,101304.72
2023-04-16T20:05:50.000Z,101309.06
2023-04-16T20:08:17.098Z,101316.06
2023-04-16T20:10:43.869Z,101314.31
2023-04-16T20:13:13.715Z,101321.34
2023-04-16T20:15:40.464Z,101312.50
2023-04-16T20:18:09.173Z,101308.09
2023-04-16T20:20:38.066Z,101306.31
2023-04-16T20:23:05.524Z,101308.88
2023-04-16T20:25:36.426Z,101312.38
2023-04-16T20:28:10.437Z,101307.00
2023-04-16T20:30:39.890Z,101306.88
2023-04-16T20:33:08.573Z,101317.31
2023-04-16T20:35:35.548Z,101315.44
2023-04-16T20:38:02.149Z,101312.72
2023-04-16T20:40:31.775Z,101319.75
2023-04-16T20:43:01.746Z,101316.19
2023-04-16T20:45:32.339Z,101317.03
2023-04-16T20:47:59.832Z,101322.28
2023-04-16T20:50:26.974Z,101326.63
2023-04-16T20:52:53.662Z,101315.13
2023-04-16T20:55:20.637Z,101319.50
2023-04-16T20:57:47.706Z,101317.72
2023-04-16T21:00:15.933Z,101318.56
2023-04-16T21:02:45.870Z,101320.38
2023-04-16T21:05:16.595Z,101321.22
2023-04-16T21:07:43.524Z,101318.56
2023-04-16T21:10:11.009Z,101323.88
2023-04-16T21:12:37.940Z,101322.13
2023-04-16T21:15:07.736Z,101320.41
2023-04-16T21:17:34.617Z,101329.25
2023-04-16T21:20:01.490Z,101320.44
2023-04-16T21:22:29.417Z,101330.22
2023-04-16T21:24:56.191Z,101331.19
2023-04-16T21:27:22.729Z,101332.97
2023-04-16T21:29:50.906Z,101334.81
2023-04-16T21:32:17.539Z,101338.28
2023-04-16T21:34:44.404Z,101331.25
2023-04-16T21:37:11.206Z,101331.28
2023-04-16T21:39:37.941Z,101339.19
2023-04-16T21:42:04.748Z,101340.91
2023-04-16T21:44:31.598Z,101342.69
2023-04-16T21:46:58.919Z,101329.47
2023-04-16T21:49:25.709Z,101338.28
2023-04-16T21:51:58.952Z,101343.53
2023-04-16T21:54:25.762Z,101337.31
2023-04-16T21:56:52.512Z,101345.22
2023-04-16T21:59:19.141Z,101340.72
2023-04-16T22:01:45.889Z,101343.34
2023-04-16T22:04:12.835Z,101338.88
2023-04-16T22:06:40.278Z,101335.28
2023-04-16T22:09:07.486Z,101338.72
2023-04-16T22:11:34.051Z,101331.66
2023-04-16T22:14:00.598Z,101333.38
2023-04-16T22:16:27.304Z,101337.72
2023-04-16T22:18:55.093Z,101336.78
2023-04-16T22:21:21.734Z,101343.75
2023-04-16T22:23:48.413Z,101337.47
2023-04-16T22:26:15.335Z,101334.72
2023-04-16T22:28:41.885Z,101338.22
2023-04-16T22:31:08.759Z,101344.31
2023-04-16T22:33:35.576Z,101343.34
2023-04-16T22:36:02.278Z,101339.72
2023-04-16T22:38:28.940Z,101345.88
2023-04-16T22:40:55.507Z,101344.03
2023-04-16T22:43:22.052Z,101345.72
2023-04-16T22:45:48.692Z,101348.28
2023-04-16T22:48:15.702Z,101343.78
2023-04-16T22:50:48.555Z,101338.41
2023-04-16T22:53:15.800Z,101342.69
2023-04-16T22:55:42.444Z,101348.78
2023-04-16T22:58:09.002Z,101345.94
2023-04-16T23:00:36.036Z,101341.53
2023-04-16T23:03:02.752Z,101344.03
2023-04-16T23:05:29.571Z,101351.03
2023-04-16T23:07:56.430Z,101344.75
2023-04-16T23:10:23.226Z,101345.59
2023-04-16T23:12:50.017Z,101339.31
2023-04-16T23:15:18.339Z,101348.03
2023-04-16T23:17:46.026Z,101343.59
2023-04-16T23:20:13.271Z,101350.56
2023-04-16T23:22:40.886Z,101349.63
2023-04-16T23:25:09.028Z,101354.81
2023-04-16T23:27:36.522Z,101353.00
2023-04-16T23:30:03.565Z,101351.09
2023-04-16T23:32:30.324Z,101352.84
2023-04-16T23:34:57.245Z,101358.03
2023-04-16T23:37:24.944Z,101356.25
2023-04-16T23:39:51.673Z,101351.75
2023-04-16T23:42:18.884Z,101353.44
2023-04-16T23:44:45.645Z,101354.25
2023-04-16T23:47:12.363Z,101357.78
2023-04-16T23:49:39.923Z,101361.28
2023-04-16T23:52:07.975Z,101356.81
2023-04-16T23:54:35.741Z,101362.06
2023-04-16T23:57:02.294Z,101360.28
2023-04-16T23:59:28.981Z,101356.63
